Time;durP1;ratioP1;P1;durP2;ratioP2;P2;SDS_P1;SDS_P2;PMS_P1;PMS_P2;Temp;Humidity;BMP_temperature;BMP_pressure;BME280_temperature;BME280_humidity;BME280_pressure;Samples;Min_cycle;Max_cycle;Signal;HPM_P1;HPM_P2
2023/07/10 00:01:24;;;;;;;16.70;12.23;;;20.30;99.90;;;;;;4994675;28;20396;-65
2023/07/10 00:03:50;;;;;;;19.05;12.98;;;20.30;99.90;;;;;;4994723;28;20022;-65
2023/07/10 00:06:16;;;;;;;20.48;13.18;;;20.20;99.90;;;;;;4994524;28;20033;-66
2023/07/10 00:08:42;;;;;;;18.85;12.65;;;20.20;99.90;;;;;;4993511;28;20112;-65
2023/07/10 00:11:22;;;;;;;18.08;12.75;;;20.20;99.90;;;;;;4994489;28;20026;-65
2023/07/10 00:13:48;;;;;;;18.05;12.30;;;20.20;99.90;;;;;;4995113;28;20037;-65
2023/07/10 00:16:20;;;;;;;22.42;14.27;;;20.20;99.90;;;;;;4994348;28;20053;-66
2023/07/10 00:18:47;;;;;;;26.80;16.02;;;20.20;99.90;;;;;;4994351;28;20029;-66
2023/07/10 00:21:13;;;;;;;22.80;15.70;;;20.20;99.90;;;;;;4993645;28;20519;-65
2023/07/10 00:23:38;;;;;;;28.77;19.20;;;20.20;99.90;;;;;;4994028;28;20034;-65
2023/07/10 00:26:20;;;;;;;29.85;20.13;;;20.30;99.90;;;;;;4994237;28;20101;-67
2023/07/10 00:28:48;;;;;;;30.85;20.20;;;20.30;99.90;;;;;;4994095;28;20061;-65
2023/07/10 00:31:13;;;;;;;36.80;25.15;;;20.30;99.90;;;;;;4976990;28;20431;-65
2023/07/10 00:33:39;;;;;;;35.63;24.20;;;20.30;99.90;;;;;;4994174;28;20028;-65
2023/07/10 00:36:24;;;;;;;44.20;25.80;;;20.30;99.90;;;;;;4993929;28;20407;-65
2023/07/10 00:38:49;;;;;;;38.80;24.95;;;20.30;99.90;;;;;;4994084;28;20105;-66
2023/07/10 00:41:15;;;;;;;40.75;28.35;;;20.30;99.90;;;;;;4993855;28;20057;-65
2023/07/10 00:43:45;;;;;;;47.33;28.77;;;20.30;99.90;;;;;;4994043;28;20026;-66
2023/07/10 00:46:53;;;;;;;62.05;35.88;;;20.40;99.90;;;;;;4993802;28;20507;-66
2023/07/10 00:49:24;;;;;;;69.55;35.65;;;20.40;99.90;;;;;;4994300;28;20029;-65
2023/07/10 00:52:09;;;;;;;63.55;36.03;;;20.40;99.90;;;;;;4993899;28;20036;-65
2023/07/10 00:54:39;;;;;;;58.75;33.65;;;20.50;99.90;;;;;;4993623;28;20034;-65
2023/07/10 00:57:12;;;;;;;64.10;34.33;;;20.40;99.90;;;;;;4993553;28;20057;-65
2023/07/10 00:59:40;;;;;;;62.00;34.10;;;20.40;99.90;;;;;;4993779;28;20030;-65
2023/07/10 01:02:11;;;;;;;70.15;39.15;;;20.40;99.90;;;;;;4993462;28;20029;-65
2023/07/10 01:04:42;;;;;;;64.57;38.70;;;20.40;99.90;;;;;;4993500;28;20026;-65
2023/07/10 01:07:11;;;;;;;65.43;37.00;;;20.40;99.90;;;;;;4993385;28;20085;-65
2023/07/10 01:09:46;;;;;;;67.07;39.53;;;20.40;99.90;;;;;;4993562;28;20435;-65
2023/07/10 01:12:12;;;;;;;67.47;37.42;;;20.30;99.90;;;;;;4993321;28;20088;-67
2023/07/10 01:14:38;;;;;;;66.97;37.42;;;20.30;99.90;;;;;;4993246;28;20038;-65
2023/07/10 01:17:05;;;;;;;63.40;36.67;;;20.30;99.90;;;;;;4993134;28;20101;-65
2023/07/10 01:19:33;;;;;;;64.22;36.67;;;20.20;99.90;;;;;;4993421;28;20019;-65
2023/07/10 01:22:00;;;;;;;60.00;36.35;;;20.20;99.90;;;;;;5001027;22;20045;-64
2023/07/10 01:24:26;;;;;;;60.28;36.72;;;20.20;99.90;;;;;;4973429;28;20692;-64
2023/07/10 01:26:53;;;;;;;63.55;36.45;;;20.20;99.90;;;;;;4973489;28;20400;-65
2023/07/10 01:29:27;;;;;;;65.20;33.65;;;20.20;99.90;;;;;;4973602;28;20031;-64
2023/07/10 01:31:54;;;;;;;59.90;33.63;;;20.30;99.90;;;;;;4973052;28;20033;-64
2023/07/10 01:34:27;;;;;;;55.33;35.30;;;20.40;99.90;;;;;;4973346;28;20023;-64
2023/07/10 01:36:54;;;;;;;54.45;33.20;;;20.30;99.90;;;;;;4973329;28;20632;-64
2023/07/10 01:39:40;;;;;;;55.80;33.63;;;20.40;99.90;;;;;;4956254;28;20034;-64
2023/07/10 01:42:06;;;;;;;54.53;30.65;;;20.40;99.90;;;;;;4973394;28;20473;-64
2023/07/10 01:44:34;;;;;;;45.38;29.00;;;20.40;99.90;;;;;;4973516;28;20098;-64
2023/07/10 01:47:02;;;;;;;46.13;30.50;;;20.30;99.90;;;;;;4973306;28;20046;-64
2023/07/10 01:49:32;;;;;;;53.75;30.92;;;20.20;99.90;;;;;;4973321;28;20073;-64
2023/07/10 01:52:00;;;;;;;54.78;31.17;;;20.20;99.90;;;;;;4973223;28;20113;-64
2023/07/10 01:54:25;;;;;;;55.22;31.70;;;20.20;99.90;;;;;;4973126;28;20031;-64
2023/07/10 01:56:52;;;;;;;53.17;30.83;;;20.20;99.90;;;;;;4972959;28;20042;-64
2023/07/10 01:59:17;;;;;;;57.00;30.20;;;20.20;99.90;;;;;;4973292;28;20026;-64
2023/07/10 02:01:44;;;;;;;53.20;29.95;;;20.30;99.90;;;;;;4955852;28;20369;-64
2023/07/10 02:04:09;;;;;;;54.40;28.92;;;20.30;99.90;;;;;;4973245;28;20030;-64
2023/07/10 02:06:36;;;;;;;45.80;27.70;;;20.40;99.90;;;;;;4972911;28;20078;-64
2023/07/10 02:09:03;;;;;;;49.85;29.13;;;20.40;99.90;;;;;;4973048;28;20448;-64
2023/07/10 02:11:29;;;;;;;48.40;27.00;;;20.40;99.90;;;;;;4973014;28;20046;-64
2023/07/10 02:13:54;;;;;;;44.45;27.08;;;20.40;99.90;;;;;;4973105;28;20028;-64
2023/07/10 02:16:20;;;;;;;41.45;23.95;;;20.40;99.90;;;;;;4972818;28;20027;-64
2023/07/10 02:18:46;;;;;;;48.60;28.50;;;20.50;99.90;;;;;;4972854;28;20023;-64
2023/07/10 02:21:12;;;;;;;43.20;25.58;;;20.50;99.90;;;;;;4955470;28;20058;-64
2023/07/10 02:23:38;;;;;;;41.25;25.65;;;20.50;99.90;;;;;;4972990;28;20042;-64
2023/07/10 02:26:05;;;;;;;37.33;23.85;;;20.60;99.90;;;;;;4972893;28;20031;-64
2023/07/10 02:28:30;;;;;;;36.28;21.40;;;20.60;99.90;;;;;;4955475;28;20122;-64
2023/07/10 02:30:56;;;;;;;33.30;20.02;;;20.60;99.90;;;;;;4973108;28;20094;-64
2023/07/10 02:33:22;;;;;;;31.25;19.67;;;20.60;99.90;;;;;;4972891;28;20023;-64
2023/07/10 02:35:48;;;;;;;33.80;21.70;;;20.60;99.90;;;;;;4972641;28;20566;-64
2023/07/10 02:38:14;;;;;;;35.85;23.33;;;20.60;99.90;;;;;;4972637;28;20027;-64
2023/07/10 02:40:42;;;;;;;37.83;22.80;;;20.60;99.90;;;;;;4972715;28;20513;-64
2023/07/10 02:43:08;;;;;;;46.75;23.38;;;20.60;99.90;;;;;;4956265;28;20031;-64
2023/07/10 02:45:35;;;;;;;38.58;23.10;;;20.60;99.90;;;;;;4976683;28;20069;-64
2023/07/10 02:48:00;;;;;;;51.20;27.63;;;20.60;99.90;;;;;;4976487;28;20031;-64
2023/07/10 02:50:26;;;;;;;48.03;27.77;;;20.60;99.90;;;;;;4976568;28;20023;-64
2023/07/10 02:52:51;;;;;;;43.88;25.75;;;20.60;99.90;;;;;;4976294;28;20105;-64
2023/07/10 02:55:17;;;;;;;45.13;25.70;;;20.60;99.90;;;;;;4976374;28;20035;-64
2023/07/10 02:57:43;;;;;;;41.63;25.25;;;20.60;99.90;;;;;;4976260;28;20416;-64
2023/07/10 03:00:08;;;;;;;42.83;27.60;;;20.70;99.90;;;;;;4976463;28;20022;-64
2023/07/10 03:02:34;;;;;;;47.72;26.98;;;20.70;99.90;;;;;;4976160;28;20070;-64
2023/07/10 03:05:00;;;;;;;39.15;25.60;;;20.70;99.90;;;;;;4976257;28;20039;-65
2023/07/10 03:07:25;;;;;;;42.53;26.20;;;20.70;99.90;;;;;;4975947;28;20038;-64
2023/07/10 03:09:51;;;;;;;38.58;25.75;;;20.70;99.90;;;;;;4958738;28;20058;-64
2023/07/10 03:12:16;;;;;;;43.63;29.75;;;20.70;99.90;;;;;;4976035;28;20046;-64
2023/07/10 03:14:42;;;;;;;44.17;27.02;;;20.70;99.90;;;;;;4976016;28;20055;-64
2023/07/10 03:17:08;;;;;;;39.22;26.05;;;20.70;99.90;;;;;;4975860;28;20563;-64
2023/07/10 03:19:34;;;;;;;34.28;23.95;;;20.70;99.90;;;;;;4976018;28;20045;-65
2023/07/10 03:22:00;;;;;;;40.42;25.63;;;20.60;99.90;;;;;;4975711;28;20035;-64
2023/07/10 03:24:25;;;;;;;39.38;24.90;;;20.60;99.90;;;;;;4975965;28;20057;-64
2023/07/10 03:26:51;;;;;;;34.97;23.90;;;20.60;99.90;;;;;;4975668;28;20027;-64
2023/07/10 03:29:17;;;;;;;38.50;25.38;;;20.60;99.90;;;;;;4975990;28;20077;-64
2023/07/10 03:31:43;;;;;;;39.88;27.95;;;20.50;99.90;;;;;;4975734;28;20023;-64
2023/07/10 03:34:12;;;;;;;40.92;26.08;;;20.40;99.90;;;;;;4975722;28;20031;-64
2023/07/10 03:36:38;;;;;;;38.10;27.52;;;20.50;99.90;;;;;;4975334;28;20421;-64
2023/07/10 03:39:04;;;;;;;44.33;28.40;;;20.50;99.90;;;;;;4975677;28;20026;-64
2023/07/10 03:41:29;;;;;;;39.63;27.02;;;20.40;99.90;;;;;;4975585;28;20102;-64
2023/07/10 03:43:55;;;;;;;39.65;28.55;;;20.40;99.90;;;;;;4975763;28;20062;-64
2023/07/10 03:46:21;;;;;;;40.50;26.35;;;20.30;99.90;;;;;;4975464;28;20058;-64
2023/07/10 03:48:49;;;;;;;46.28;30.45;;;20.30;99.90;;;;;;4975627;28;20038;-64
2023/07/10 03:51:16;;;;;;;50.28;30.52;;;20.30;99.90;;;;;;4975175;28;20053;-64
2023/07/10 03:53:41;;;;;;;53.92;29.52;;;20.20;99.90;;;;;;4975492;28;20023;-64
2023/07/10 03:56:08;;;;;;;48.65;32.03;;;20.30;99.90;;;;;;4974228;28;20035;-64
2023/07/10 03:58:35;;;;;;;53.78;32.22;;;20.30;99.90;;;;;;4975201;28;20019;-64
2023/07/10 04:01:01;;;;;;;54.15;29.63;;;20.20;99.90;;;;;;4975316;28;20081;-64
2023/07/10 04:03:32;;;;;;;49.30;29.38;;;20.20;99.90;;;;;;4975287;28;20033;-64
2023/07/10 04:05:58;;;;;;;59.95;34.97;;;20.20;99.90;;;;;;4974952;28;20031;-64
2023/07/10 04:08:30;;;;;;;50.03;31.45;;;20.20;99.90;;;;;;4975031;28;20037;-64
2023/07/10 04:10:58;;;;;;;56.45;32.45;;;20.20;99.90;;;;;;4975098;28;20034;-64
2023/07/10 04:13:24;;;;;;;52.28;31.95;;;20.20;99.90;;;;;;4975059;28;20106;-64
2023/07/10 04:16:02;;;;;;;57.85;33.38;;;20.20;99.90;;;;;;4957431;28;20177;-64
2023/07/10 04:18:29;;;;;;;69.53;34.88;;;20.20;99.90;;;;;;4974800;28;20046;-64
2023/07/10 04:20:56;;;;;;;56.17;35.10;;;20.30;99.90;;;;;;4974788;28;20104;-64
2023/07/10 04:23:21;;;;;;;62.22;32.67;;;20.20;99.90;;;;;;4957494;28;20165;-64
2023/07/10 04:25:48;;;;;;;54.95;33.90;;;20.20;99.90;;;;;;4975035;28;20555;-64
2023/07/10 04:28:13;;;;;;;59.95;35.47;;;20.20;99.90;;;;;;4974617;28;20047;-64
2023/07/10 04:30:39;;;;;;;68.25;36.58;;;20.10;99.90;;;;;;4974698;28;20026;-64
2023/07/10 04:33:08;;;;;;;70.30;37.58;;;20.10;99.90;;;;;;4974612;28;20042;-65
2023/07/10 04:35:33;;;;;;;66.80;36.92;;;20.10;99.90;;;;;;4974404;28;20030;-62
2023/07/10 04:37:59;;;;;;;82.88;40.90;;;20.10;99.90;;;;;;4974400;28;20027;-64
2023/07/10 04:40:25;;;;;;;61.15;38.80;;;20.10;99.90;;;;;;4974583;28;20473;-64
2023/07/10 04:42:51;;;;;;;65.40;38.10;;;20.00;99.90;;;;;;4974397;28;20027;-64
2023/07/10 04:45:17;;;;;;;72.05;39.05;;;20.10;99.90;;;;;;4974476;28;20030;-64
2023/07/10 04:47:43;;;;;;;64.10;37.47;;;20.10;99.90;;;;;;4974124;28;20400;-64
2023/07/10 04:50:09;;;;;;;62.10;37.35;;;20.00;99.90;;;;;;4974283;28;20145;-64
2023/07/10 04:52:34;;;;;;;66.88;38.08;;;20.00;99.90;;;;;;4974283;28;20085;-64
2023/07/10 04:55:00;;;;;;;63.10;36.40;;;19.90;99.90;;;;;;4974209;28;20424;-64
2023/07/10 04:57:25;;;;;;;61.00;37.03;;;19.90;99.90;;;;;;4956668;28;20023;-64
2023/07/10 04:59:51;;;;;;;60.63;34.08;;;19.90;99.90;;;;;;4974403;28;20030;-64
2023/07/10 05:02:17;;;;;;;54.47;32.85;;;19.90;99.90;;;;;;4974063;28;20042;-64
2023/07/10 05:04:42;;;;;;;50.85;29.80;;;19.90;99.90;;;;;;4974085;28;20460;-64
2023/07/10 05:07:09;;;;;;;51.05;27.23;;;20.00;99.90;;;;;;4973726;28;20030;-64
2023/07/10 05:09:35;;;;;;;43.78;23.75;;;20.00;99.90;;;;;;4973935;28;20035;-64
2023/07/10 05:12:00;;;;;;;33.03;20.35;;;20.00;99.90;;;;;;4956576;28;20054;-64
2023/07/10 05:14:26;;;;;;;31.75;19.35;;;20.00;99.90;;;;;;4973758;28;20129;-64
2023/07/10 05:16:52;;;;;;;28.20;18.13;;;20.10;99.90;;;;;;4973628;28;20050;-64
2023/07/10 05:19:17;;;;;;;31.38;18.40;;;20.20;99.90;;;;;;4973876;28;20058;-64
2023/07/10 05:21:43;;;;;;;29.67;17.33;;;20.30;99.90;;;;;;4973695;28;20090;-64
2023/07/10 05:24:09;;;;;;;24.92;16.02;;;20.30;99.90;;;;;;4973906;28;20051;-64
2023/07/10 05:26:34;;;;;;;23.52;14.30;;;20.30;99.90;;;;;;4973521;28;20113;-64
2023/07/10 05:29:00;;;;;;;23.55;13.07;;;20.50;99.90;;;;;;4973652;28;20027;-64
2023/07/10 05:31:26;;;;;;;24.85;14.45;;;20.50;99.90;;;;;;4973724;28;20030;-64
2023/07/10 05:33:51;;;;;;;23.98;13.63;;;20.60;99.90;;;;;;4973589;28;20101;-64
2023/07/10 05:36:18;;;;;;;19.08;12.98;;;20.60;99.90;;;;;;4973533;28;20031;-64
2023/07/10 05:38:48;;;;;;;21.23;12.52;;;20.70;99.90;;;;;;4973473;28;20023;-64
2023/07/10 05:41:15;;;;;;;23.27;11.63;;;20.80;99.90;;;;;;4973411;28;20022;-64
2023/07/10 05:43:40;;;;;;;21.13;12.23;;;20.80;99.90;;;;;;4973437;28;20034;-65
2023/07/10 05:46:06;;;;;;;18.88;11.98;;;20.80;99.90;;;;;;4973195;28;20027;-64
2023/07/10 05:48:32;;;;;;;16.98;11.23;;;20.90;99.90;;;;;;4973206;28;20034;-64
2023/07/10 05:50:59;;;;;;;17.42;10.45;;;20.80;99.90;;;;;;4973239;28;20031;-64
2023/07/10 05:53:25;;;;;;;18.98;11.65;;;20.70;99.90;;;;;;4973368;28;20027;-64
2023/07/10 05:55:52;;;;;;;13.88;9.50;;;20.60;99.90;;;;;;4973018;28;20027;-64
2023/07/10 05:58:19;;;;;;;15.68;10.52;;;20.50;99.90;;;;;;4972945;28;20378;-64
2023/07/10 06:00:48;;;;;;;18.90;10.38;;;20.50;99.90;;;;;;4973141;28;20158;-64
2023/07/10 06:03:14;;;;;;;15.45;10.10;;;20.50;99.90;;;;;;4972978;28;20031;-64
2023/07/10 06:05:40;;;;;;;16.83;11.32;;;20.50;99.90;;;;;;4972965;28;20077;-64
2023/07/10 06:08:07;;;;;;;18.05;10.45;;;20.60;99.90;;;;;;4972896;28;20109;-64
2023/07/10 06:10:34;;;;;;;18.27;10.95;;;20.70;99.90;;;;;;4973021;28;20420;-65
2023/07/10 06:12:59;;;;;;;15.77;10.48;;;20.80;99.90;;;;;;4955516;28;20064;-64
2023/07/10 06:15:25;;;;;;;15.98;10.77;;;20.80;99.90;;;;;;4972853;28;20027;-64
2023/07/10 06:17:50;;;;;;;21.38;10.63;;;20.80;99.90;;;;;;4972151;28;20093;-64
2023/07/10 06:20:16;;;;;;;16.38;10.82;;;20.90;99.90;;;;;;4972925;28;20023;-65
2023/07/10 06:22:42;;;;;;;17.25;10.50;;;21.10;99.90;;;;;;4955360;28;20041;-65
2023/07/10 06:25:08;;;;;;;18.05;9.98;;;21.40;99.90;;;;;;4972841;28;20507;-65
2023/07/10 06:27:34;;;;;;;14.25;9.38;;;21.40;99.90;;;;;;4972577;28;20030;-64
2023/07/10 06:30:00;;;;;;;14.30;9.63;;;21.40;99.90;;;;;;4972905;28;20030;-65
2023/07/10 06:32:25;;;;;;;15.73;9.82;;;21.50;99.90;;;;;;4972719;28;20436;-64
2023/07/10 06:34:51;;;;;;;20.80;9.05;;;21.60;99.90;;;;;;4972667;28;20045;-65
2023/07/10 06:37:17;;;;;;;14.25;9.55;;;21.80;99.90;;;;;;4972545;28;20061;-64
2023/07/10 06:39:42;;;;;;;18.20;10.73;;;22.10;99.90;;;;;;4973094;28;20034;-65
2023/07/10 06:42:08;;;;;;;12.80;8.32;;;22.50;99.90;;;;;;4972617;28;20030;-65
2023/07/10 06:44:33;;;;;;;13.82;8.38;;;22.80;99.90;;;;;;4972703;28;20031;-65
2023/07/10 06:46:59;;;;;;;18.30;9.23;;;23.20;99.90;;;;;;4972419;28;20081;-65
2023/07/10 06:49:25;;;;;;;13.70;8.02;;;23.50;99.90;;;;;;4972736;28;20023;-65
2023/07/10 06:51:51;;;;;;;12.73;7.70;;;24.10;99.90;;;;;;4972628;28;20045;-65
2023/07/10 06:54:16;;;;;;;11.98;7.45;;;24.50;99.90;;;;;;4972557;28;20019;-65
2023/07/10 06:56:42;;;;;;;13.70;8.45;;;25.20;99.90;;;;;;4972318;28;20031;-65
2023/07/10 06:59:07;;;;;;;11.02;7.22;;;25.80;99.90;;;;;;4972530;28;20023;-65
2023/07/10 07:01:33;;;;;;;13.27;7.43;;;26.00;99.90;;;;;;4972500;28;20031;-65
2023/07/10 07:03:58;;;;;;;12.30;6.75;;;26.10;99.90;;;;;;4972556;28;20484;-65
2023/07/10 07:06:24;;;;;;;14.13;7.38;;;25.90;99.90;;;;;;4972428;28;20090;-65
2023/07/10 07:08:52;;;;;;;11.60;7.68;;;25.60;99.90;;;;;;4972392;28;20027;-65
2023/07/10 07:11:18;;;;;;;16.38;7.65;;;25.40;99.90;;;;;;4972319;28;20517;-65
2023/07/10 07:13:44;;;;;;;12.60;7.93;;;25.00;99.90;;;;;;4972482;28;20446;-65
2023/07/10 07:16:09;;;;;;;16.55;8.35;;;24.70;99.90;;;;;;4972166;28;20046;-65
2023/07/10 07:18:35;;;;;;;13.48;6.45;;;24.80;99.90;;;;;;4972320;28;20424;-65
2023/07/10 07:21:01;;;;;;;15.98;7.00;;;24.80;99.90;;;;;;4954838;28;20042;-65
2023/07/10 07:23:27;;;;;;;15.90;7.65;;;24.80;99.90;;;;;;4992132;23;20046;-64
2023/07/10 07:25:54;;;;;;;14.05;7.10;;;24.60;99.90;;;;;;4971950;28;20036;-65
2023/07/10 07:28:21;;;;;;;15.82;8.43;;;24.50;99.90;;;;;;4972190;28;20033;-64
2023/07/10 07:30:49;;;;;;;12.80;8.30;;;23.90;99.90;;;;;;4974020;28;20050;-65
2023/07/10 07:33:17;;;;;;;13.35;8.13;;;23.90;99.90;;;;;;4975769;28;20035;-63
2023/07/10 07:35:42;;;;;;;12.45;6.22;;;23.80;99.90;;;;;;4975513;28;20031;-65
2023/07/10 07:38:08;;;;;;;16.25;7.15;;;23.80;99.90;;;;;;4975553;28;20457;-64
2023/07/10 07:40:35;;;;;;;18.42;7.72;;;24.00;99.90;;;;;;4975593;28;20019;-66
2023/07/10 07:43:00;;;;;;;14.18;8.18;;;23.80;99.90;;;;;;4975508;28;20022;-64
2023/07/10 07:45:26;;;;;;;13.25;7.22;;;23.60;99.90;;;;;;4975502;28;20432;-63
2023/07/10 07:47:52;;;;;;;9.98;6.20;;;23.50;99.90;;;;;;4975278;28;20026;-63
2023/07/10 07:50:17;;;;;;;11.25;6.45;;;23.60;99.90;;;;;;4975461;28;20086;-64
2023/07/10 07:52:43;;;;;;;16.52;5.53;;;24.00;99.90;;;;;;4975367;28;20031;-65
2023/07/10 07:55:09;;;;;;;11.50;5.32;;;24.10;99.90;;;;;;4975185;28;20071;-65
2023/07/10 07:57:34;;;;;;;16.23;5.53;;;24.30;99.90;;;;;;4975100;28;20023;-64
2023/07/10 08:00:00;;;;;;;12.35;5.43;;;24.40;99.90;;;;;;4975238;28;20031;-64
2023/07/10 08:02:26;;;;;;;6.47;4.60;;;24.30;99.90;;;;;;4975173;28;20515;-64
2023/07/10 08:04:52;;;;;;;15.70;5.70;;;24.30;99.90;;;;;;4975188;28;20089;-64
2023/07/10 08:07:17;;;;;;;9.45;6.18;;;24.50;99.90;;;;;;4974906;28;20019;-63
2023/07/10 08:09:43;;;;;;;10.70;5.88;;;24.50;99.90;;;;;;4975066;28;20027;-64
2023/07/10 08:12:09;;;;;;;9.60;4.82;;;24.40;99.90;;;;;;4975023;28;20433;-64
2023/07/10 08:14:34;;;;;;;11.85;5.25;;;24.20;99.90;;;;;;4974915;28;20023;-64
2023/07/10 08:17:01;;;;;;;9.52;4.38;;;23.90;99.90;;;;;;4974760;28;20085;-64
2023/07/10 08:19:26;;;;;;;10.85;5.15;;;23.90;99.90;;;;;;4974960;28;20142;-64
2023/07/10 08:21:57;;;;;;;7.38;4.20;;;24.00;99.90;;;;;;4974819;28;20515;-63
2023/07/10 08:24:23;;;;;;;8.15;4.47;;;24.10;99.90;;;;;;4974790;28;20455;-65
2023/07/10 08:26:49;;;;;;;12.75;4.00;;;24.70;99.90;;;;;;4974585;28;20374;-64
2023/07/10 08:29:29;;;;;;;7.45;3.97;;;24.70;99.90;;;;;;4974724;28;20026;-64
2023/07/10 08:31:57;;;;;;;8.63;4.25;;;24.70;99.90;;;;;;4974679;28;20073;-64
2023/07/10 08:34:24;;;;;;;5.90;3.10;;;24.90;99.90;;;;;;4974508;28;20118;-64
2023/07/10 08:36:54;;;;;;;6.43;3.42;;;25.40;99.90;;;;;;4974298;28;20487;-64
2023/07/10 08:39:22;;;;;;;6.30;3.13;;;26.30;99.90;;;;;;4957218;28;20026;-64
2023/07/10 08:41:54;;;;;;;7.22;2.80;;;27.00;99.90;;;;;;4974091;28;20050;-64
2023/07/10 08:44:29;;;;;;;5.03;3.05;;;27.90;99.30;;;;;;4974801;28;20388;-64
2023/07/10 08:46:55;;;;;;;9.05;3.05;;;28.40;97.40;;;;;;4957002;28;20073;-65
2023/07/10 08:49:34;;;;;;;9.13;3.65;;;27.60;96.30;;;;;;4974325;28;20050;-64
2023/07/10 08:52:15;;;;;;;6.80;2.83;;;27.40;99.40;;;;;;4974266;28;20492;-64
2023/07/10 08:54:45;;;;;;;6.40;3.53;;;27.90;97.70;;;;;;4974183;28;20038;-63
2023/07/10 08:57:16;;;;;;;7.00;4.05;;;28.10;94.70;;;;;;4956673;28;20026;-65
2023/07/10 08:59:50;;;;;;;5.78;3.22;;;28.20;95.10;;;;;;4974037;28;20373;-64
2023/07/10 09:02:24;;;;;;;4.00;2.78;;;29.10;94.70;;;;;;4974084;28;20023;-65
2023/07/10 09:04:51;;;;;;;6.53;2.88;;;29.70;92.80;;;;;;4974146;28;20054;-64
2023/07/10 09:07:18;;;;;;;7.70;2.78;;;30.40;90.10;;;;;;4973800;28;20081;-65
2023/07/10 09:09:55;;;;;;;9.70;3.67;;;30.00;90.70;;;;;;4974023;28;20053;-64
2023/07/10 09:12:34;;;;;;;5.63;3.10;;;30.10;89.60;;;;;;4973836;28;20030;-65
2023/07/10 09:15:05;;;;;;;6.13;2.70;;;29.30;90.80;;;;;;4973872;28;20035;-65
2023/07/10 09:17:39;;;;;;;8.25;3.35;;;29.30;93.70;;;;;;4973588;28;20072;-65
2023/07/10 09:20:10;;;;;;;5.50;3.33;;;29.20;92.30;;;;;;4973843;28;20034;-64
2023/07/10 09:22:37;;;;;;;9.43;2.70;;;29.20;92.80;;;;;;4973648;28;20030;-65
2023/07/10 09:25:12;;;;;;;9.05;2.75;;;29.60;91.40;;;;;;4973698;28;20042;-64
2023/07/10 09:27:41;;;;;;;3.95;2.22;;;29.50;89.70;;;;;;4973445;28;20388;-64
2023/07/10 09:30:33;;;;;;;6.95;2.92;;;29.10;90.30;;;;;;4973723;28;20026;-64
2023/07/10 09:33:04;;;;;;;7.30;2.70;;;28.00;91.90;;;;;;4956179;28;20030;-64
2023/07/10 09:35:30;;;;;;;5.85;2.90;;;27.70;93.50;;;;;;4973464;28;20034;-66
2023/07/10 09:37:56;;;;;;;7.00;2.42;;;28.60;91.30;;;;;;4973329;28;20027;-64
2023/07/10 09:40:44;;;;;;;4.10;2.60;;;28.80;89.80;;;;;;4973441;28;20384;-64
2023/07/10 09:43:16;;;;;;;4.70;2.15;;;28.90;86.20;;;;;;4973321;28;20022;-65
2023/07/10 09:45:47;;;;;;;5.20;2.38;;;28.70;86.80;;;;;;4973267;28;20102;-64
2023/07/10 09:48:33;;;;;;;5.60;2.72;;;28.50;89.40;;;;;;4973208;28;20035;-64
2023/07/10 09:51:07;;;;;;;7.70;2.63;;;29.20;87.70;;;;;;4973356;28;20031;-64
2023/07/10 09:53:45;;;;;;;4.15;2.10;;;29.20;90.70;;;;;;4972479;28;20548;-65
2023/07/10 09:56:32;;;;;;;3.40;2.13;;;30.00;86.40;;;;;;4973000;28;20035;-64
2023/07/10 09:58:58;;;;;;;4.22;2.00;;;29.50;86.30;;;;;;4973193;28;20023;-64
2023/07/10 10:01:28;;;;;;;5.50;2.45;;;29.00;85.20;;;;;;4973186;28;20045;-64
2023/07/10 10:03:55;;;;;;;7.85;2.50;;;28.80;86.60;;;;;;4973192;28;20069;-64
2023/07/10 10:06:29;;;;;;;8.00;2.15;;;28.70;87.40;;;;;;4972875;28;20509;-65
2023/07/10 10:08:54;;;;;;;4.75;1.95;;;29.00;87.60;;;;;;4973334;28;20054;-66
2023/07/10 10:11:44;;;;;;;7.65;2.00;;;29.20;81.60;;;;;;4973315;28;20070;-64
2023/07/10 10:14:17;;;;;;;5.13;2.80;;;29.00;86.00;;;;;;4973400;28;20463;-64
2023/07/10 10:16:49;;;;;;;3.88;2.03;;;28.40;84.30;;;;;;4972739;28;20138;-64
2023/07/10 10:19:33;;;;;;;4.13;1.95;;;28.10;85.70;;;;;;4972997;28;20098;-64
2023/07/10 10:21:59;;;;;;;6.05;1.80;;;28.10;87.10;;;;;;4972828;28;20034;-64
2023/07/10 10:24:28;;;;;;;6.72;2.55;;;28.70;86.60;;;;;;4972930;28;20034;-63
2023/07/10 10:27:05;;;;;;;2.75;1.80;;;29.00;84.40;;;;;;4955238;28;20026;-64
2023/07/10 10:29:40;;;;;;;2.88;2.03;;;29.20;85.00;;;;;;4973111;28;20393;-65
2023/07/10 10:32:08;;;;;;;4.57;1.75;;;29.00;80.60;;;;;;4972837;28;20117;-64
2023/07/10 10:34:44;;;;;;;2.85;1.67;;;29.30;81.50;;;;;;4972782;28;20050;-64
2023/07/10 10:37:29;;;;;;;2.58;1.60;;;29.60;79.60;;;;;;4972599;28;20498;-65
2023/07/10 10:40:32;;;;;;;4.00;1.88;;;29.50;79.00;;;;;;4955478;28;20405;-64
2023/07/10 10:43:17;;;;;;;;;;;29.20;80.60;;;;;;4973115;28;20027;-65
2023/07/10 10:45:50;;;;;;;5.72;2.17;;;28.70;81.40;;;;;;4972680;28;19929;-64
2023/07/10 10:48:33;;;;;;;6.82;2.15;;;28.50;83.60;;;;;;4972622;28;20077;-64
2023/07/10 10:51:18;;;;;;;4.40;2.00;;;27.90;84.60;;;;;;4972725;28;20035;-64
2023/07/10 10:53:57;;;;;;;4.75;2.33;;;27.30;86.90;;;;;;4972695;28;20506;-64
2023/07/10 10:56:29;;;;;;;3.28;1.95;;;27.50;86.90;;;;;;4972341;28;20037;-64
2023/07/10 10:59:35;;;;;;;11.63;1.92;;;27.90;82.90;;;;;;4972555;28;20025;-64
2023/07/10 11:02:19;;;;;;;4.45;2.00;;;28.50;81.70;;;;;;4972551;28;20027;-65
2023/07/10 11:04:49;;;;;;;4.50;1.98;;;29.10;82.90;;;;;;4974206;28;20166;-64
2023/07/10 11:07:21;;;;;;;3.13;1.67;;;28.90;79.10;;;;;;4976045;28;20110;-65
2023/07/10 11:09:52;;;;;;;2.72;1.90;;;29.20;83.20;;;;;;4976258;28;20022;-63
2023/07/10 11:12:21;;;;;;;2.70;1.73;;;29.10;80.50;;;;;;4976106;28;20034;-64
2023/07/10 11:14:49;;;;;;;3.08;1.85;;;28.70;81.50;;;;;;4976047;28;20034;-64
2023/07/10 11:17:15;;;;;;;5.60;2.03;;;28.50;80.30;;;;;;4975769;28;20465;-64
2023/07/10 11:19:41;;;;;;;4.85;1.77;;;28.60;79.20;;;;;;4976045;28;20023;-64
2023/07/10 11:22:27;;;;;;;3.53;2.28;;;28.30;79.90;;;;;;4975856;28;20500;-63
2023/07/10 11:24:53;;;;;;;2.08;1.10;;;28.00;84.10;;;;;;4975880;28;20022;-64
2023/07/10 11:27:27;;;;;;;5.20;1.77;;;27.90;82.10;;;;;;4975667;28;20027;-64
2023/07/10 11:30:15;;;;;;;2.78;1.33;;;28.10;81.30;;;;;;4975814;28;20035;-63
2023/07/10 11:33:18;;;;;;;3.55;1.55;;;28.20;81.60;;;;;;4975765;28;20058;-64
2023/07/10 11:36:14;;;;;;;2.47;1.20;;;28.30;79.20;;;;;;4915374;28;20123;-63
2023/07/10 11:39:05;;;;;;;2.17;1.00;;;28.40;82.90;;;;;;4975545;28;20035;-63
2023/07/10 11:41:44;;;;;;;1.95;1.10;;;28.70;77.90;;;;;;4975599;28;20058;-64
2023/07/10 11:44:21;;;;;;;4.38;1.60;;;28.60;77.20;;;;;;4975643;28;20034;-64
2023/07/10 11:47:05;;;;;;;2.85;1.15;;;28.50;78.90;;;;;;4975407;28;20500;-64
2023/07/10 11:49:33;;;;;;;2.83;1.40;;;28.50;76.70;;;;;;4958184;28;20516;-63
2023/07/10 11:52:15;;;;;;;2.58;1.50;;;28.50;74.30;;;;;;4975383;28;20034;-64
2023/07/10 11:55:00;;;;;;;1.10;0.90;;;28.40;75.60;;;;;;4975252;28;20115;-64
2023/07/10 11:57:28;;;;;;;2.30;1.20;;;28.40;76.10;;;;;;4975084;28;20054;-64
2023/07/10 12:00:23;;;;;;;3.90;1.20;;;28.20;76.90;;;;;;4975318;28;20043;-64
2023/07/10 12:02:51;;;;;;;2.78;1.10;;;28.00;74.20;;;;;;4975102;28;20042;-64
2023/07/10 12:05:31;;;;;;;2.35;1.00;;;27.70;74.50;;;;;;4975091;28;20528;-64
2023/07/10 12:08:02;;;;;;;6.43;1.52;;;27.70;76.30;;;;;;4975033;28;20038;-63
2023/07/10 12:10:30;;;;;;;2.60;1.30;;;27.80;76.60;;;;;;4975148;28;20023;-64
2023/07/10 12:12:57;;;;;;;4.57;1.42;;;28.00;75.20;;;;;;4974969;28;20049;-64
2023/07/10 12:15:24;;;;;;;1.92;1.13;;;28.10;74.80;;;;;;4974425;28;20476;-63
2023/07/10 12:17:53;;;;;;;2.33;1.35;;;28.30;73.20;;;;;;4974498;28;20031;-64
2023/07/10 12:20:31;;;;;;;2.05;1.27;;;28.20;76.00;;;;;;4975036;28;20066;-64
2023/07/10 12:23:09;;;;;;;4.25;1.00;;;28.10;75.00;;;;;;4974845;28;20125;-64
2023/07/10 12:25:35;;;;;;;3.00;1.30;;;28.10;73.90;;;;;;4974627;28;20031;-63
2023/07/10 12:28:03;;;;;;;3.95;1.30;;;27.90;76.40;;;;;;4974666;28;20118;-65
2023/07/10 12:30:30;;;;;;;2.45;1.20;;;27.90;74.40;;;;;;4974751;28;20523;-64
2023/07/10 12:32:56;;;;;;;3.20;1.35;;;27.90;74.10;;;;;;4974731;28;20030;-64
2023/07/10 12:35:29;;;;;;;3.10;1.60;;;27.80;75.10;;;;;;4974623;28;20031;-63
2023/07/10 12:37:56;;;;;;;2.55;1.30;;;27.60;74.20;;;;;;4974472;28;20015;-64
2023/07/10 12:40:21;;;;;;;5.72;1.23;;;27.70;75.50;;;;;;4974620;28;20085;-64
2023/07/10 12:42:47;;;;;;;4.72;1.30;;;27.50;75.30;;;;;;4974409;28;20489;-65
2023/07/10 12:45:39;;;;;;;3.55;1.40;;;27.40;74.30;;;;;;4974474;28;20035;-64
2023/07/10 12:48:14;;;;;;;3.38;1.23;;;27.20;73.60;;;;;;4974357;28;20106;-64